Aviation Digital Data Service (ADDS)

Output produced by METARs form (1356 UTC 17 October 2018)
found at http://aviationweather.gov/metar/data/
 
KIPJ 171350Z AUTO 27003KT 10SM -RA CLR 19/16 A3017 RMK AO2 T01870164
KIPJ 171330Z AUTO 00000KT 10SM CLR 19/16 A3016 RMK AO2 T01900161
KIPJ 171310Z AUTO 00000KT 10SM CLR 19/17 A3016 RMK AO2 T01850171